sensor_id;sensor_type;location;lat;lon;timestamp;pressure;altitude;pressure_sealevel;temperature;humidity
61035;BME280;46916;40.564;-7.958;2023-02-13T00:01:37;98418.13;;;10.44;55.75
61035;BME280;46916;40.564;-7.958;2023-02-13T00:03:38;98425.25;;;10.41;55.44
61035;BME280;46916;40.564;-7.958;2023-02-13T00:05:38;98428.78;;;10.40;55.83
61035;BME280;46916;40.564;-7.958;2023-02-13T00:07:39;98427.31;;;10.36;55.69
61035;BME280;46916;40.564;-7.958;2023-02-13T00:09:40;98426.72;;;10.33;55.76
61035;BME280;46916;40.564;-7.958;2023-02-13T00:11:41;98435.50;;;10.32;55.87
61035;BME280;46916;40.564;-7.958;2023-02-13T00:13:41;98429.44;;;10.31;56.18
61035;BME280;46916;40.564;-7.958;2023-02-13T00:15:42;98438.13;;;10.32;56.32
61035;BME280;46916;40.564;-7.958;2023-02-13T00:17:43;98432.88;;;10.32;56.11
61035;BME280;46916;40.564;-7.958;2023-02-13T00:19:43;98426.91;;;10.30;56.25
61035;BME280;46916;40.564;-7.958;2023-02-13T00:21:44;98424.50;;;10.27;56.30
61035;BME280;46916;40.564;-7.958;2023-02-13T00:23:45;98425.44;;;10.26;56.39
61035;BME280;46916;40.564;-7.958;2023-02-13T00:25:45;98423.78;;;10.25;56.36
61035;BME280;46916;40.564;-7.958;2023-02-13T00:27:46;98428.06;;;10.26;56.67
61035;BME280;46916;40.564;-7.958;2023-02-13T00:29:46;98435.97;;;10.24;56.52
61035;BME280;46916;40.564;-7.958;2023-02-13T00:31:47;98436.09;;;10.23;56.67
61035;BME280;46916;40.564;-7.958;2023-02-13T00:33:48;98437.44;;;10.15;56.69
61035;BME280;46916;40.564;-7.958;2023-02-13T00:35:49;98439.63;;;10.09;57.18
61035;BME280;46916;40.564;-7.958;2023-02-13T00:37:49;98445.72;;;10.09;57.21
61035;BME280;46916;40.564;-7.958;2023-02-13T00:39:50;98443.81;;;10.11;57.03
61035;BME280;46916;40.564;-7.958;2023-02-13T00:41:51;98432.44;;;10.12;57.35
61035;BME280;46916;40.564;-7.958;2023-02-13T00:43:51;98444.44;;;10.15;56.93
61035;BME280;46916;40.564;-7.958;2023-02-13T00:45:52;98437.34;;;10.17;56.87
61035;BME280;46916;40.564;-7.958;2023-02-13T00:47:53;98433.78;;;10.18;57.17
61035;BME280;46916;40.564;-7.958;2023-02-13T00:49:54;98433.97;;;10.15;57.30
61035;BME280;46916;40.564;-7.958;2023-02-13T00:51:56;98433.97;;;10.15;57.17
61035;BME280;46916;40.564;-7.958;2023-02-13T00:53:57;98444.44;;;10.15;57.01
61035;BME280;46916;40.564;-7.958;2023-02-13T00:55:58;98443.63;;;10.14;56.85
61035;BME280;46916;40.564;-7.958;2023-02-13T00:57:58;98436.72;;;10.13;57.06
61035;BME280;46916;40.564;-7.958;2023-02-13T00:59:59;98439.22;;;10.15;57.21
61035;BME280;46916;40.564;-7.958;2023-02-13T01:02:00;98438.38;;;10.14;57.36
61035;BME280;46916;40.564;-7.958;2023-02-13T01:04:00;98437.44;;;10.15;57.14
61035;BME280;46916;40.564;-7.958;2023-02-13T01:06:01;98447.00;;;10.16;57.16
61035;BME280;46916;40.564;-7.958;2023-02-13T01:08:02;98439.22;;;10.15;57.47
61035;BME280;46916;40.564;-7.958;2023-02-13T01:10:03;98432.19;;;10.15;57.09
61035;BME280;46916;40.564;-7.958;2023-02-13T01:12:04;98437.44;;;10.15;57.03
61035;BME280;46916;40.564;-7.958;2023-02-13T01:14:05;98436.50;;;10.16;57.12
61035;BME280;46916;40.564;-7.958;2023-02-13T01:16:06;98435.75;;;10.14;57.96
61035;BME280;46916;40.564;-7.958;2023-02-13T01:18:08;98434.94;;;10.14;57.93
61035;BME280;46916;40.564;-7.958;2023-02-13T01:20:11;98437.56;;;10.14;57.51
61035;BME280;46916;40.564;-7.958;2023-02-13T01:22:12;98448.13;;;10.12;57.87
61035;BME280;46916;40.564;-7.958;2023-02-13T01:24:14;98440.56;;;10.08;57.78
61035;BME280;46916;40.564;-7.958;2023-02-13T01:26:20;98436.38;;;10.05;57.65
61035;BME280;46916;40.564;-7.958;2023-02-13T01:28:23;98444.97;;;10.07;57.55
61035;BME280;46916;40.564;-7.958;2023-02-13T01:30:24;98439.63;;;10.09;57.90
61035;BME280;46916;40.564;-7.958;2023-02-13T01:32:25;98452.63;;;10.10;57.73
61035;BME280;46916;40.564;-7.958;2023-02-13T01:34:25;98447.38;;;10.10;57.85
61035;BME280;46916;40.564;-7.958;2023-02-13T01:36:26;98446.53;;;10.10;57.76
61035;BME280;46916;40.564;-7.958;2023-02-13T01:38:28;98444.03;;;10.08;57.86
61035;BME280;46916;40.564;-7.958;2023-02-13T01:40:29;98447.38;;;10.10;57.56
61035;BME280;46916;40.564;-7.958;2023-02-13T01:42:32;98442.16;;;10.10;57.52
61035;BME280;46916;40.564;-7.958;2023-02-13T01:45:17;98445.50;;;10.12;57.65
61035;BME280;46916;40.564;-7.958;2023-02-13T01:47:08;98441.84;;;10.15;57.74
61035;BME280;46916;40.564;-7.958;2023-02-13T01:49:19;98439.97;;;10.17;57.42
61035;BME280;46916;40.564;-7.958;2023-02-13T01:51:30;98442.59;;;10.17;57.73
61035;BME280;46916;40.564;-7.958;2023-02-13T01:54:05;98439.84;;;10.18;57.91
61035;BME280;46916;40.564;-7.958;2023-02-13T01:58:12;98446.75;;;10.20;57.98
61035;BME280;46916;40.564;-7.958;2023-02-13T02:00:15;98448.53;;;10.19;57.74
61035;BME280;46916;40.564;-7.958;2023-02-13T02:02:19;98451.16;;;10.19;57.94
61035;BME280;46916;40.564;-7.958;2023-02-13T02:04:31;98448.75;;;10.16;58.03
61035;BME280;46916;40.564;-7.958;2023-02-13T02:06:39;98454.94;;;10.15;58.09
61035;BME280;46916;40.564;-7.958;2023-02-13T02:08:42;98457.47;;;10.16;58.07
61035;BME280;46916;40.564;-7.958;2023-02-13T02:10:51;98447.00;;;10.16;58.22
61035;BME280;46916;40.564;-7.958;2023-02-13T02:13:13;98448.66;;;10.17;58.21
61035;BME280;46916;40.564;-7.958;2023-02-13T02:15:14;98447.72;;;10.18;57.91
61035;BME280;46916;40.564;-7.958;2023-02-13T02:17:15;98452.00;;;10.20;58.03
61035;BME280;46916;40.564;-7.958;2023-02-13T02:22:10;98446.03;;;10.17;58.03
61035;BME280;46916;40.564;-7.958;2023-02-13T02:29:49;98456.50;;;10.17;57.68
61035;BME280;46916;40.564;-7.958;2023-02-13T02:32:16;98453.06;;;10.17;57.97
61035;BME280;46916;40.564;-7.958;2023-02-13T02:37:05;98458.94;;;10.21;57.50
61035;BME280;46916;40.564;-7.958;2023-02-13T02:39:25;98461.44;;;10.22;57.58
61035;BME280;46916;40.564;-7.958;2023-02-13T02:46:57;98466.56;;;10.24;57.74
61035;BME280;46916;40.564;-7.958;2023-02-13T02:49:22;98452.47;;;10.26;57.77
61035;BME280;46916;40.564;-7.958;2023-02-13T02:52:07;98451.63;;;10.26;57.89
61035;BME280;46916;40.564;-7.958;2023-02-13T02:56:43;98453.31;;;10.27;57.65
61035;BME280;46916;40.564;-7.958;2023-02-13T02:58:51;98455.09;;;10.26;57.83
61035;BME280;46916;40.564;-7.958;2023-02-13T03:01:14;98454.13;;;10.27;57.85
61035;BME280;46916;40.564;-7.958;2023-02-13T03:03:35;98455.91;;;10.27;57.49
61035;BME280;46916;40.564;-7.958;2023-02-13T03:05:55;98451.44;;;10.29;57.48
61035;BME280;46916;40.564;-7.958;2023-02-13T03:08:11;98447.88;;;10.30;57.72
61035;BME280;46916;40.564;-7.958;2023-02-13T03:10:22;98454.78;;;10.31;57.89
61035;BME280;46916;40.564;-7.958;2023-02-13T03:12:59;98453.09;;;10.30;57.87
61035;BME280;46916;40.564;-7.958;2023-02-13T03:15:21;98446.28;;;10.27;57.81
61035;BME280;46916;40.564;-7.958;2023-02-13T03:17:23;98447.22;;;10.26;57.95
61035;BME280;46916;40.564;-7.958;2023-02-13T03:19:57;98449.06;;;10.24;58.28
61035;BME280;46916;40.564;-7.958;2023-02-13T03:24:45;98442.94;;;10.25;58.40
61035;BME280;46916;40.564;-7.958;2023-02-13T03:29:08;98452.34;;;10.28;58.35
61035;BME280;46916;40.564;-7.958;2023-02-13T03:34:12;98454.97;;;10.28;57.80
61035;BME280;46916;40.564;-7.958;2023-02-13T03:36:35;98451.63;;;10.26;57.67
61035;BME280;46916;40.564;-7.958;2023-02-13T03:43:18;98465.84;;;10.22;58.83
61035;BME280;46916;40.564;-7.958;2023-02-13T03:45:45;98464.16;;;10.21;59.07
61035;BME280;46916;40.564;-7.958;2023-02-13T03:47:55;98461.44;;;10.22;59.27
61035;BME280;46916;40.564;-7.958;2023-02-13T03:49:57;98456.31;;;10.21;59.21
61035;BME280;46916;40.564;-7.958;2023-02-13T03:52:37;98459.75;;;10.21;59.50
61035;BME280;46916;40.564;-7.958;2023-02-13T03:54:45;98450.22;;;10.20;60.05
61035;BME280;46916;40.564;-7.958;2023-02-13T03:57:08;98451.06;;;10.21;60.49
61035;BME280;46916;40.564;-7.958;2023-02-13T03:59:33;98446.88;;;10.18;61.16
61035;BME280;46916;40.564;-7.958;2023-02-13T04:01:36;98449.59;;;10.16;61.64
61035;BME280;46916;40.564;-7.958;2023-02-13T04:06:09;98451.66;;;10.11;62.88
61035;BME280;46916;40.564;-7.958;2023-02-13T04:08:11;98450.13;;;10.09;62.39
61035;BME280;46916;40.564;-7.958;2023-02-13T04:10:14;98451.78;;;10.10;62.27
61035;BME280;46916;40.564;-7.958;2023-02-13T04:12:18;98458.59;;;10.12;62.22
61035;BME280;46916;40.564;-7.958;2023-02-13T04:14:30;98460.06;;;10.16;62.25
61035;BME280;46916;40.564;-7.958;2023-02-13T04:16:40;98452.13;;;10.18;61.94
61035;BME280;46916;40.564;-7.958;2023-02-13T04:18:42;98447.59;;;10.20;62.62
61035;BME280;46916;40.564;-7.958;2023-02-13T04:20:43;98463.31;;;10.20;62.78
61035;BME280;46916;40.564;-7.958;2023-02-13T04:22:45;98466.78;;;10.21;63.17
61035;BME280;46916;40.564;-7.958;2023-02-13T04:24:46;98458.94;;;10.21;63.07
61035;BME280;46916;40.564;-7.958;2023-02-13T04:26:47;98458.28;;;10.17;63.44
61035;BME280;46916;40.564;-7.958;2023-02-13T04:28:47;98454.19;;;10.13;63.84
61035;BME280;46916;40.564;-7.958;2023-02-13T04:30:48;98453.44;;;10.11;63.92
61035;BME280;46916;40.564;-7.958;2023-02-13T04:32:52;98456.19;;;10.09;64.16
61035;BME280;46916;40.564;-7.958;2023-02-13T04:34:52;98456.19;;;10.09;64.35
61035;BME280;46916;40.564;-7.958;2023-02-13T04:36:53;98457.03;;;10.10;64.45
61035;BME280;46916;40.564;-7.958;2023-02-13T04:38:54;98458.03;;;10.07;64.02
61035;BME280;46916;40.564;-7.958;2023-02-13T04:40:55;98451.25;;;10.05;64.19
61035;BME280;46916;40.564;-7.958;2023-02-13T04:42:56;98458.28;;;10.04;64.57
61035;BME280;46916;40.564;-7.958;2023-02-13T04:44:56;98452.16;;;10.04;64.41
61035;BME280;46916;40.564;-7.958;2023-02-13T04:46:57;98454.06;;;10.02;64.35
61035;BME280;46916;40.564;-7.958;2023-02-13T04:48:58;98449.66;;;10.02;64.00
61035;BME280;46916;40.564;-7.958;2023-02-13T04:50:58;98454.19;;;10.00;64.02
61035;BME280;46916;40.564;-7.958;2023-02-13T04:52:59;98456.78;;;10.00;64.26
61035;BME280;46916;40.564;-7.958;2023-02-13T04:55:00;98450.69;;;10.00;64.21
61035;BME280;46916;40.564;-7.958;2023-02-13T04:57:00;98453.44;;;9.98;64.70
61035;BME280;46916;40.564;-7.958;2023-02-13T04:59:01;98451.75;;;9.97;64.55
61035;BME280;46916;40.564;-7.958;2023-02-13T05:01:02;98447.47;;;9.96;64.36
61035;BME280;46916;40.564;-7.958;2023-02-13T05:03:07;98449.03;;;9.99;64.10
61035;BME280;46916;40.564;-7.958;2023-02-13T05:05:08;98451.66;;;9.99;63.99
61035;BME280;46916;40.564;-7.958;2023-02-13T05:07:08;98452.41;;;10.01;63.83
61035;BME280;46916;40.564;-7.958;2023-02-13T05:09:09;98456.56;;;10.03;63.67
61035;BME280;46916;40.564;-7.958;2023-02-13T05:11:10;98452.28;;;10.02;63.65
61035;BME280;46916;40.564;-7.958;2023-02-13T05:13:11;98452.16;;;10.04;63.81
61035;BME280;46916;40.564;-7.958;2023-02-13T05:15:11;98448.84;;;10.02;63.52
61035;BME280;46916;40.564;-7.958;2023-02-13T05:17:12;98448.94;;;10.00;63.47
61035;BME280;46916;40.564;-7.958;2023-02-13T05:19:12;98454.91;;;10.02;63.11
61035;BME280;46916;40.564;-7.958;2023-02-13T05:21:13;98448.63;;;10.05;63.34
61035;BME280;46916;40.564;-7.958;2023-02-13T05:23:32;98453.75;;;10.06;62.98
61035;BME280;46916;40.564;-7.958;2023-02-13T05:25:34;98454.50;;;10.08;63.03
61035;BME280;46916;40.564;-7.958;2023-02-13T05:27:35;98456.19;;;10.09;62.99
61035;BME280;46916;40.564;-7.958;2023-02-13T05:29:36;98457.03;;;10.10;63.06
61035;BME280;46916;40.564;-7.958;2023-02-13T05:31:37;98458.81;;;10.09;62.84
61035;BME280;46916;40.564;-7.958;2023-02-13T05:33:37;98460.47;;;10.10;62.95
61035;BME280;46916;40.564;-7.958;2023-02-13T05:35:38;98463.09;;;10.10;62.92
61035;BME280;46916;40.564;-7.958;2023-02-13T05:37:39;98459.53;;;10.11;62.38
61035;BME280;46916;40.564;-7.958;2023-02-13T05:39:39;98464.75;;;10.11;62.52
61035;BME280;46916;40.564;-7.958;2023-02-13T05:41:45;98456.91;;;10.11;62.62
61035;BME280;46916;40.564;-7.958;2023-02-13T05:43:46;98458.59;;;10.12;62.63
61035;BME280;46916;40.564;-7.958;2023-02-13T05:45:46;98462.88;;;10.13;62.45
61035;BME280;46916;40.564;-7.958;2023-02-13T05:47:47;98459.44;;;10.13;62.30
61035;BME280;46916;40.564;-7.958;2023-02-13T05:49:48;98461.22;;;10.12;62.41
61035;BME280;46916;40.564;-7.958;2023-02-13T05:51:49;98461.31;;;10.11;62.47
61035;BME280;46916;40.564;-7.958;2023-02-13T05:53:51;98456.19;;;10.09;62.96
61035;BME280;46916;40.564;-7.958;2023-02-13T05:55:52;98457.97;;;10.09;62.43
61035;BME280;46916;40.564;-7.958;2023-02-13T05:57:56;98455.53;;;10.06;62.94
61035;BME280;46916;40.564;-7.958;2023-02-13T05:59:57;98462.56;;;10.05;62.59
61035;BME280;46916;40.564;-7.958;2023-02-13T06:01:58;98461.72;;;10.05;62.43
61035;BME280;46916;40.564;-7.958;2023-02-13T06:03:58;98469.13;;;9.98;62.19
61035;BME280;46916;40.564;-7.958;2023-02-13T06:05:59;98464.09;;;9.95;62.47
61035;BME280;46916;40.564;-7.958;2023-02-13T06:08:00;98469.63;;;9.90;62.85
61035;BME280;46916;40.564;-7.958;2023-02-13T06:10:00;98472.53;;;9.86;62.72
61035;BME280;46916;40.564;-7.958;2023-02-13T06:12:01;98476.19;;;9.83;62.76
61035;BME280;46916;40.564;-7.958;2023-02-13T06:14:02;98474.53;;;9.82;63.17
61035;BME280;46916;40.564;-7.958;2023-02-13T06:16:03;98467.44;;;9.84;63.18
61035;BME280;46916;40.564;-7.958;2023-02-13T06:18:04;98472.53;;;9.86;62.92
61035;BME280;46916;40.564;-7.958;2023-02-13T06:20:05;98470.56;;;9.89;62.78
61035;BME280;46916;40.564;-7.958;2023-02-13T06:22:06;98475.63;;;9.92;62.66
61035;BME280;46916;40.564;-7.958;2023-02-13T06:24:07;98473.00;;;9.92;62.48
61035;BME280;46916;40.564;-7.958;2023-02-13T06:26:08;98465.97;;;9.93;62.63
61035;BME280;46916;40.564;-7.958;2023-02-13T06:28:09;98467.66;;;9.94;62.98
61035;BME280;46916;40.564;-7.958;2023-02-13T06:30:10;98460.56;;;9.96;63.00
61035;BME280;46916;40.564;-7.958;2023-02-13T06:32:11;98463.19;;;9.96;62.66
61035;BME280;46916;40.564;-7.958;2023-02-13T06:34:12;98465.78;;;9.96;62.60
61035;BME280;46916;40.564;-7.958;2023-02-13T06:36:13;98471.03;;;9.96;62.77
61035;BME280;46916;40.564;-7.958;2023-02-13T06:38:13;98466.63;;;9.97;63.10
61035;BME280;46916;40.564;-7.958;2023-02-13T06:40:15;98469.25;;;9.97;63.21
61035;BME280;46916;40.564;-7.958;2023-02-13T06:42:16;98465.78;;;9.96;63.18
61035;BME280;46916;40.564;-7.958;2023-02-13T06:44:18;98464.09;;;9.95;62.92
61035;BME280;46916;40.564;-7.958;2023-02-13T06:46:18;98460.56;;;9.96;63.14
61035;BME280;46916;40.564;-7.958;2023-02-13T06:48:19;98464.84;;;9.97;62.87
61035;BME280;46916;40.564;-7.958;2023-02-13T06:50:20;98458.78;;;9.97;62.86
61035;BME280;46916;40.564;-7.958;2023-02-13T06:52:21;98460.44;;;9.98;63.60
61035;BME280;46916;40.564;-7.958;2023-02-13T06:54:21;98470.06;;;9.97;63.62
61035;BME280;46916;40.564;-7.958;2023-02-13T06:56:22;98467.47;;;9.97;63.65
61035;BME280;46916;40.564;-7.958;2023-02-13T06:58:24;98465.78;;;9.96;63.23
61035;BME280;46916;40.564;-7.958;2023-02-13T07:00:24;98463.19;;;9.96;63.26
61035;BME280;46916;40.564;-7.958;2023-02-13T07:02:26;98463.06;;;9.98;63.42
61035;BME280;46916;40.564;-7.958;2023-02-13T07:04:27;98463.91;;;9.98;63.22
61035;BME280;46916;40.564;-7.958;2023-02-13T07:06:27;98463.19;;;9.96;63.25
61035;BME280;46916;40.564;-7.958;2023-02-13T07:08:28;98459.59;;;9.97;63.15
61035;BME280;46916;40.564;-7.958;2023-02-13T07:10:30;98464.09;;;9.95;62.74
61035;BME280;46916;40.564;-7.958;2023-02-13T07:12:34;98459.91;;;9.92;62.66
61035;BME280;46916;40.564;-7.958;2023-02-13T07:14:35;98456.53;;;9.90;63.00
61035;BME280;46916;40.564;-7.958;2023-02-13T07:16:36;98458.44;;;9.88;62.63
61035;BME280;46916;40.564;-7.958;2023-02-13T07:18:37;98459.28;;;9.89;62.98
61035;BME280;46916;40.564;-7.958;2023-02-13T07:20:38;98463.56;;;9.90;63.02
61035;BME280;46916;40.564;-7.958;2023-02-13T07:22:38;98464.31;;;9.92;63.07
61035;BME280;46916;40.564;-7.958;2023-02-13T07:24:39;98465.03;;;9.94;62.87
61035;BME280;46916;40.564;-7.958;2023-02-13T07:26:39;98473.63;;;9.96;63.10
61035;BME280;46916;40.564;-7.958;2023-02-13T07:28:40;98467.47;;;9.97;62.71
61035;BME280;46916;40.564;-7.958;2023-02-13T07:30:41;98466.50;;;9.98;63.05
61035;BME280;46916;40.564;-7.958;2023-02-13T07:32:42;98466.50;;;9.98;63.28
61035;BME280;46916;40.564;-7.958;2023-02-13T07:34:42;98468.28;;;9.98;63.37
61035;BME280;46916;40.564;-7.958;2023-02-13T07:36:43;98475.31;;;9.97;63.33
61035;BME280;46916;40.564;-7.958;2023-02-13T07:38:44;98480.53;;;9.97;63.66
61035;BME280;46916;40.564;-7.958;2023-02-13T07:40:44;98485.03;;;9.95;63.49
61035;BME280;46916;40.564;-7.958;2023-02-13T07:42:45;98489.34;;;9.96;63.24
61035;BME280;46916;40.564;-7.958;2023-02-13T07:44:46;98486.72;;;9.96;63.02
61035;BME280;46916;40.564;-7.958;2023-02-13T07:46:46;98489.34;;;9.96;63.42
61035;BME280;46916;40.564;-7.958;2023-02-13T07:48:47;98488.47;;;9.96;63.32
61035;BME280;46916;40.564;-7.958;2023-02-13T07:50:48;98491.31;;;9.92;63.46
61035;BME280;46916;40.564;-7.958;2023-02-13T07:53:00;98493.19;;;9.90;63.75
61035;BME280;46916;40.564;-7.958;2023-02-13T07:55:01;98494.84;;;9.91;63.42
61035;BME280;46916;40.564;-7.958;2023-02-13T07:57:03;98498.34;;;9.92;63.66
61035;BME280;46916;40.564;-7.958;2023-02-13T07:59:03;98506.91;;;9.94;63.37
61035;BME280;46916;40.564;-7.958;2023-02-13T08:01:06;98508.50;;;9.97;63.26
61035;BME280;46916;40.564;-7.958;2023-02-13T08:03:07;98506.59;;;9.99;63.43
61035;BME280;46916;40.564;-7.958;2023-02-13T08:05:09;98508.28;;;10.00;63.56
61035;BME280;46916;40.564;-7.958;2023-02-13T08:07:09;98511.66;;;10.02;63.65
61035;BME280;46916;40.564;-7.958;2023-02-13T08:09:17;98517.00;;;10.00;63.47
61035;BME280;46916;40.564;-7.958;2023-02-13T08:11:37;98526.41;;;10.03;63.44
61035;BME280;46916;40.564;-7.958;2023-02-13T08:13:53;98522.75;;;10.05;63.50
61035;BME280;46916;40.564;-7.958;2023-02-13T08:15:54;98527.88;;;10.07;63.76
61035;BME280;46916;40.564;-7.958;2023-02-13T08:17:54;98523.41;;;10.09;63.66
61035;BME280;46916;40.564;-7.958;2023-02-13T08:19:55;98526.56;;;10.14;63.21
61035;BME280;46916;40.564;-7.958;2023-02-13T08:21:56;98533.06;;;10.21;63.33
61035;BME280;46916;40.564;-7.958;2023-02-13T08:23:58;98535.56;;;10.23;63.56
61035;BME280;46916;40.564;-7.958;2023-02-13T08:26:01;98528.66;;;10.22;63.53
61035;BME280;46916;40.564;-7.958;2023-02-13T08:28:02;98532.13;;;10.22;63.70
61035;BME280;46916;40.564;-7.958;2023-02-13T08:30:04;98534.00;;;10.20;63.53
61035;BME280;46916;40.564;-7.958;2023-02-13T08:32:05;98534.75;;;10.22;63.79
61035;BME280;46916;40.564;-7.958;2023-02-13T08:34:06;98533.91;;;10.22;63.94
61035;BME280;46916;40.564;-7.958;2023-02-13T08:36:07;98537.56;;;10.19;64.06
61035;BME280;46916;40.564;-7.958;2023-02-13T08:38:08;98540.94;;;10.21;64.16
61035;BME280;46916;40.564;-7.958;2023-02-13T08:40:09;98542.59;;;10.22;64.19
61035;BME280;46916;40.564;-7.958;2023-02-13T08:42:10;98546.16;;;10.21;63.97
61035;BME280;46916;40.564;-7.958;2023-02-13T08:44:11;98554.84;;;10.22;63.80
61035;BME280;46916;40.564;-7.958;2023-02-13T08:46:11;98553.06;;;10.22;63.83
61035;BME280;46916;40.564;-7.958;2023-02-13T08:48:12;98547.00;;;10.22;64.15
61035;BME280;46916;40.564;-7.958;2023-02-13T08:50:12;98556.53;;;10.23;64.09
61035;BME280;46916;40.564;-7.958;2023-02-13T08:52:13;98554.03;;;10.21;64.41
61035;BME280;46916;40.564;-7.958;2023-02-13T08:54:14;98556.53;;;10.23;64.81
61035;BME280;46916;40.564;-7.958;2023-02-13T08:56:15;98561.75;;;10.23;64.43
61035;BME280;46916;40.564;-7.958;2023-02-13T08:58:16;98563.38;;;10.25;64.38
61035;BME280;46916;40.564;-7.958;2023-02-13T09:00:16;98572.06;;;10.26;64.75
61035;BME280;46916;40.564;-7.958;2023-02-13T09:02:18;98570.19;;;10.28;65.05
61035;BME280;46916;40.564;-7.958;2023-02-13T09:04:18;98574.28;;;10.32;65.07
61035;BME280;46916;40.564;-7.958;2023-02-13T09:06:19;98573.13;;;10.36;65.27
61035;BME280;46916;40.564;-7.958;2023-02-13T09:08:21;98581.63;;;10.39;65.42
61035;BME280;46916;40.564;-7.958;2023-02-13T09:10:21;98575.44;;;10.40;65.88
61035;BME280;46916;40.564;-7.958;2023-02-13T09:12:22;98577.97;;;10.42;66.23
61035;BME280;46916;40.564;-7.958;2023-02-13T09:14:23;98580.41;;;10.45;66.14
61035;BME280;46916;40.564;-7.958;2023-02-13T09:16:24;98578.50;;;10.47;65.82
61035;BME280;46916;40.564;-7.958;2023-02-13T09:18:26;98585.34;;;10.50;65.71
61035;BME280;46916;40.564;-7.958;2023-02-13T09:20:27;98582.59;;;10.51;65.45
61035;BME280;46916;40.564;-7.958;2023-02-13T09:22:27;98579.88;;;10.53;65.32
61035;BME280;46916;40.564;-7.958;2023-02-13T09:24:28;98578.13;;;10.53;65.38
61035;BME280;46916;40.564;-7.958;2023-02-13T09:26:29;98587.53;;;10.56;65.57
61035;BME280;46916;40.564;-7.958;2023-02-13T09:28:31;98580.63;;;10.55;66.20
61035;BME280;46916;40.564;-7.958;2023-02-13T09:30:32;98583.25;;;10.55;66.70
61035;BME280;46916;40.564;-7.958;2023-02-13T09:32:34;98587.66;;;10.54;66.56
61035;BME280;46916;40.564;-7.958;2023-02-13T09:34:35;98590.16;;;10.56;66.61
61035;BME280;46916;40.564;-7.958;2023-02-13T09:36:36;98591.63;;;10.60;66.37
61035;BME280;46916;40.564;-7.958;2023-02-13T09:38:36;98594.06;;;10.63;65.47
61035;BME280;46916;40.564;-7.958;2023-02-13T09:42:38;98595.00;;;10.62;66.27
61035;BME280;46916;40.564;-7.958;2023-02-13T09:44:41;98585.56;;;10.59;66.58
61035;BME280;46916;40.564;-7.958;2023-02-13T09:46:43;98591.63;;;10.60;66.57
61035;BME280;46916;40.564;-7.958;2023-02-13T09:48:47;98595.84;;;10.62;67.64
61035;BME280;46916;40.564;-7.958;2023-02-13T09:50:49;98601.50;;;10.69;67.44
61035;BME280;46916;40.564;-7.958;2023-02-13T09:52:52;98602.97;;;10.73;67.29
61035;BME280;46916;40.564;-7.958;2023-02-13T09:54:54;98607.00;;;10.79;67.36
61035;BME280;46916;40.564;-7.958;2023-02-13T09:56:59;98612.25;;;10.91;68.15
61035;BME280;46916;40.564;-7.958;2023-02-13T10:01:29;98605.84;;;11.47;67.24
61035;BME280;46916;40.564;-7.958;2023-02-13T10:03:43;98601.31;;;11.61;66.76
61035;BME280;46916;40.564;-7.958;2023-02-13T10:05:57;98603.19;;;11.72;65.77
61035;BME280;46916;40.564;-7.958;2023-02-13T10:08:22;98596.66;;;11.78;65.12
61035;BME280;46916;40.564;-7.958;2023-02-13T10:13:10;98609.28;;;11.85;63.78
61035;BME280;46916;40.564;-7.958;2023-02-13T10:17:46;98593.19;;;11.90;62.48
61035;BME280;46916;40.564;-7.958;2023-02-13T10:21:58;98595.19;;;11.86;61.91
61035;BME280;46916;40.564;-7.958;2023-02-13T10:24:17;98603.81;;;11.88;61.91
61035;BME280;46916;40.564;-7.958;2023-02-13T10:26:27;98600.13;;;11.91;61.77
61035;BME280;46916;40.564;-7.958;2023-02-13T10:28:55;98592.84;;;11.95;61.66
61035;BME280;46916;40.564;-7.958;2023-02-13T10:31:17;98595.47;;;11.95;61.38
61035;BME280;46916;40.564;-7.958;2023-02-13T10:33:28;98597.69;;;12.01;61.29
61035;BME280;46916;40.564;-7.958;2023-02-13T10:35:32;98600.47;;;12.10;61.30
61035;BME280;46916;40.564;-7.958;2023-02-13T10:37:34;98597.78;;;12.23;60.65
61035;BME280;46916;40.564;-7.958;2023-02-13T10:39:35;98594.84;;;12.28;60.25
61035;BME280;46916;40.564;-7.958;2023-02-13T10:42:15;98595.56;;;12.30;60.07
61035;BME280;46916;40.564;-7.958;2023-02-13T10:46:55;98601.94;;;12.38;59.49
61035;BME280;46916;40.564;-7.958;2023-02-13T10:51:19;98607.72;;;12.79;58.18
61035;BME280;46916;40.564;-7.958;2023-02-13T10:53:52;98605.50;;;13.08;57.60
61035;BME280;46916;40.564;-7.958;2023-02-13T10:56:09;98600.44;;;13.40;56.56
61035;BME280;46916;40.564;-7.958;2023-02-13T10:58:44;98598.38;;;13.55;56.10
61035;BME280;46916;40.564;-7.958;2023-02-13T11:02:55;98602.19;;;13.96;55.39
61035;BME280;46916;40.564;-7.958;2023-02-13T11:05:05;98608.47;;;14.16;54.00
61035;BME280;46916;40.564;-7.958;2023-02-13T11:07:14;98603.41;;;14.35;53.50
61035;BME280;46916;40.564;-7.958;2023-02-13T11:09:15;98608.88;;;14.54;53.27
61035;BME280;46916;40.564;-7.958;2023-02-13T11:11:37;98605.44;;;14.75;52.21
61035;BME280;46916;40.564;-7.958;2023-02-13T11:13:38;98608.84;;;14.86;51.58
61035;BME280;46916;40.564;-7.958;2023-02-13T11:15:40;98603.06;;;14.93;50.81
61035;BME280;46916;40.564;-7.958;2023-02-13T11:17:40;98606.03;;;14.99;50.90
61035;BME280;46916;40.564;-7.958;2023-02-13T11:20:05;98605.50;;;15.05;50.90
61035;BME280;46916;40.564;-7.958;2023-02-13T11:22:11;98617.22;;;15.13;50.45
61035;BME280;46916;40.564;-7.958;2023-02-13T11:24:21;98614.75;;;15.21;50.10
61035;BME280;46916;40.564;-7.958;2023-02-13T11:26:28;98607.44;;;15.24;49.17
61035;BME280;46916;40.564;-7.958;2023-02-13T11:28:34;98604.66;;;15.26;49.21
61035;BME280;46916;40.564;-7.958;2023-02-13T11:30:37;98614.44;;;15.35;49.03
61035;BME280;46916;40.564;-7.958;2023-02-13T11:32:38;98609.28;;;15.33;48.97
61035;BME280;46916;40.564;-7.958;2023-02-13T11:34:39;98617.00;;;15.25;48.88
61035;BME280;46916;40.564;-7.958;2023-02-13T11:36:40;98613.22;;;15.18;48.63
61035;BME280;46916;40.564;-7.958;2023-02-13T11:38:41;98611.50;;;15.07;48.71
61035;BME280;46916;40.564;-7.958;2023-02-13T11:40:43;98601.16;;;14.95;49.08
61035;BME280;46916;40.564;-7.958;2023-02-13T11:42:48;98611.03;;;14.81;48.05
61035;BME280;46916;40.564;-7.958;2023-02-13T11:45:03;98607.88;;;14.67;48.61
61035;BME280;46916;40.564;-7.958;2023-02-13T11:47:04;98608.16;;;14.52;48.96
61035;BME280;46916;40.564;-7.958;2023-02-13T11:49:11;98609.72;;;14.44;48.96